createdAt,value
2018-02-02T00:02:10.929Z,49.16
2018-02-02T00:04:37.174Z,48.72
2018-02-02T00:07:03.370Z,49.13
2018-02-02T00:09:29.807Z,49.07
2018-02-02T00:11:56.092Z,49.02
2018-02-02T00:14:22.288Z,49.12
2018-02-02T00:16:48.488Z,49.12
2018-02-02T00:19:14.682Z,49.10
2018-02-02T00:21:40.840Z,49.24
2018-02-02T00:24:07.108Z,49.12
2018-02-02T00:26:33.377Z,48.91
2018-02-02T00:28:59.848Z,49.12
2018-02-02T00:31:26.432Z,49.02
2018-02-02T00:33:52.644Z,49.05
2018-02-02T00:36:18.857Z,49.30
2018-02-02T00:38:45.374Z,49.28
2018-02-02T00:41:11.562Z,49.45
2018-02-02T00:43:37.742Z,49.46
2018-02-02T00:46:03.972Z,49.34
2018-02-02T00:48:30.184Z,49.21
2018-02-02T00:53:58.560Z,49.16
2018-02-02T00:56:24.871Z,49.19
2018-02-02T00:58:51.070Z,49.38
2018-02-02T01:01:17.235Z,49.58
2018-02-02T01:03:43.763Z,50.36
2018-02-02T01:06:10.000Z,50.24
2018-02-02T01:08:36.187Z,50.24
2018-02-02T01:11:03.002Z,50.24
2018-02-02T01:13:29.180Z,50.08
2018-02-02T01:15:55.361Z,50.14
2018-02-02T01:18:21.612Z,50.09
2018-02-02T01:20:47.820Z,50.14
2018-02-02T01:23:14.024Z,50.14
2018-02-02T01:25:40.618Z,50.25
2018-02-02T01:28:06.808Z,50.24
2018-02-02T01:30:33.032Z,50.21
2018-02-02T01:32:59.274Z,50.28
2018-02-02T01:35:25.434Z,50.36
2018-02-02T01:37:51.611Z,50.60
2018-02-02T01:40:17.839Z,50.72
2018-02-02T01:42:44.027Z,50.80
2018-02-02T01:45:10.225Z,50.63
2018-02-02T01:47:36.827Z,50.61
2018-02-02T01:50:03.073Z,50.40
2018-02-02T01:52:29.327Z,50.35
2018-02-02T01:54:55.530Z,50.38
2018-02-02T01:57:21.742Z,50.33
2018-02-02T01:59:48.035Z,50.33
2018-02-02T02:02:14.196Z,50.24
2018-02-02T02:04:40.455Z,50.54
2018-02-02T02:07:06.898Z,51.08
2018-02-02T02:09:33.096Z,51.30
2018-02-02T02:11:59.580Z,51.43
2018-02-02T02:14:26.057Z,51.46
2018-02-02T02:16:52.596Z,51.65
2018-02-02T02:19:18.852Z,51.67
2018-02-02T02:21:45.066Z,51.66
2018-02-02T02:24:11.584Z,51.72
2018-02-02T02:26:37.842Z,51.66
2018-02-02T02:29:04.019Z,51.92
2018-02-02T02:31:30.466Z,52.05
2018-02-02T02:33:56.696Z,52.14
2018-02-02T02:36:22.866Z,52.06
2018-02-02T02:38:49.040Z,52.08
2018-02-02T02:41:15.593Z,52.14
2018-02-02T02:43:41.805Z,52.17
2018-02-02T02:46:08.001Z,52.11
2018-02-02T02:48:34.350Z,51.98
2018-02-02T02:51:00.516Z,52.20
2018-02-02T02:53:27.046Z,52.12
2018-02-02T02:55:53.292Z,52.01
2018-02-02T02:58:19.487Z,52.27
2018-02-02T03:00:46.092Z,52.02
2018-02-02T03:03:12.300Z,52.10
2018-02-02T03:05:38.797Z,52.07
2018-02-02T03:08:05.060Z,52.15
2018-02-02T03:10:31.246Z,52.25
2018-02-02T03:12:57.786Z,52.04
2018-02-02T03:15:24.626Z,52.15
2018-02-02T03:17:50.832Z,52.03
2018-02-02T03:20:17.295Z,51.85
2018-02-02T03:22:43.534Z,51.85
2018-02-02T03:25:09.692Z,51.45
2018-02-02T03:27:35.887Z,51.59
2018-02-02T03:30:02.110Z,51.93
2018-02-02T03:32:28.355Z,52.00
2018-02-02T03:34:54.533Z,51.97
2018-02-02T03:37:20.969Z,52.07
2018-02-02T03:39:47.228Z,52.02
2018-02-02T03:42:13.440Z,51.85
2018-02-02T03:44:39.641Z,51.86
2018-02-02T03:47:05.863Z,52.24
2018-02-02T03:49:32.412Z,52.09
2018-02-02T03:51:58.616Z,52.00
2018-02-02T03:54:24.911Z,51.90
2018-02-02T03:56:51.127Z,51.74
2018-02-02T03:59:17.327Z,51.64
2018-02-02T04:01:43.509Z,51.71
2018-02-02T04:04:09.836Z,51.58
2018-02-02T04:06:36.073Z,51.64
2018-02-02T04:09:02.292Z,51.62
2018-02-02T04:11:28.527Z,51.55
2018-02-02T04:13:54.723Z,51.51
2018-02-02T04:16:20.927Z,51.82
2018-02-02T04:18:47.521Z,51.75
2018-02-02T04:21:13.713Z,51.75
2018-02-02T04:23:40.140Z,52.09
2018-02-02T04:26:06.392Z,52.08
2018-02-02T04:28:32.554Z,51.97
2018-02-02T04:30:58.762Z,51.99
2018-02-02T04:33:25.258Z,51.96
2018-02-02T04:38:47.865Z,51.78
2018-02-02T04:41:14.047Z,51.71
2018-02-02T04:43:40.233Z,51.67
2018-02-02T04:46:06.535Z,51.72
2018-02-02T04:48:32.729Z,51.70
2018-02-02T04:50:58.984Z,51.66
2018-02-02T04:53:25.554Z,51.59
2018-02-02T04:55:51.722Z,51.64
2018-02-02T04:58:17.917Z,51.60
2018-02-02T05:00:44.489Z,51.69
2018-02-02T05:03:10.661Z,51.51
2018-02-02T05:05:36.848Z,51.57
2018-02-02T05:08:03.088Z,51.48
2018-02-02T05:10:29.607Z,52.03
2018-02-02T05:12:55.808Z,52.01
2018-02-02T05:15:22.313Z,51.89
2018-02-02T05:17:48.539Z,51.89
2018-02-02T05:20:15.026Z,52.09
2018-02-02T05:22:41.629Z,52.06
2018-02-02T05:25:07.812Z,51.89
2018-02-02T05:27:34.008Z,51.73
2018-02-02T05:30:00.247Z,52.14
2018-02-02T05:32:26.439Z,52.05
2018-02-02T05:34:52.907Z,51.95
2018-02-02T05:37:19.156Z,51.78
2018-02-02T05:39:45.355Z,51.84
2018-02-02T05:42:11.908Z,51.76
2018-02-02T05:44:38.245Z,51.77
2018-02-02T05:47:04.768Z,51.22
2018-02-02T05:49:30.960Z,51.09
2018-02-02T05:51:57.339Z,51.02
2018-02-02T05:54:25.879Z,50.96
2018-02-02T05:56:52.050Z,50.95
2018-02-02T05:59:18.271Z,50.94
2018-02-02T06:01:44.467Z,50.89
2018-02-02T06:04:10.747Z,50.87
2018-02-02T06:06:36.913Z,50.90
2018-02-02T06:09:03.235Z,50.83
2018-02-02T06:11:29.780Z,50.86
2018-02-02T06:13:56.211Z,51.74
2018-02-02T06:16:22.401Z,52.99
2018-02-02T06:18:48.649Z,52.08
2018-02-02T06:21:14.853Z,51.96
2018-02-02T06:23:41.098Z,51.80
2018-02-02T06:26:07.372Z,51.71
2018-02-02T06:28:33.580Z,51.68
2018-02-02T06:30:59.792Z,51.67
2018-02-02T06:33:26.057Z,51.60
2018-02-02T06:35:52.356Z,51.48
2018-02-02T06:38:18.547Z,51.42
2018-02-02T06:40:44.774Z,51.31
2018-02-02T06:43:11.203Z,51.25
2018-02-02T06:45:37.453Z,51.15
2018-02-02T06:48:03.959Z,51.14
2018-02-02T06:50:30.145Z,51.60
2018-02-02T06:52:56.355Z,51.47
2018-02-02T06:55:22.948Z,51.57
2018-02-02T06:57:49.163Z,51.80
2018-02-02T07:00:15.456Z,51.87
2018-02-02T07:02:41.673Z,51.84
2018-02-02T07:05:07.860Z,51.80
2018-02-02T07:07:34.353Z,51.84
2018-02-02T07:10:00.541Z,51.88
2018-02-02T07:12:26.992Z,51.94
2018-02-02T07:14:53.241Z,51.88
2018-02-02T07:17:19.442Z,51.87
2018-02-02T07:19:45.619Z,51.93
2018-02-02T07:22:11.873Z,51.96
2018-02-02T07:24:38.064Z,51.85
2018-02-02T07:27:04.278Z,51.38
2018-02-02T07:29:30.799Z,51.15
2018-02-02T07:31:56.979Z,51.02
2018-02-02T07:34:23.181Z,51.01
2018-02-02T07:36:49.484Z,51.01
2018-02-02T07:39:15.674Z,50.99
2018-02-02T07:41:41.872Z,51.01
2018-02-02T07:44:08.115Z,50.95
2018-02-02T07:46:34.292Z,50.95
2018-02-02T07:49:00.495Z,50.92
2018-02-02T07:51:27.088Z,50.85
2018-02-02T07:53:53.340Z,50.79
2018-02-02T07:56:19.563Z,50.80
2018-02-02T07:58:46.168Z,50.81
2018-02-02T08:01:18.459Z,50.81
2018-02-02T08:03:44.672Z,50.73
2018-02-02T08:06:11.241Z,50.69
2018-02-02T08:08:37.446Z,50.58
2018-02-02T08:11:03.669Z,50.60
2018-02-02T08:13:30.231Z,50.67
2018-02-02T08:15:56.406Z,50.69
2018-02-02T08:18:22.589Z,50.70
2018-02-02T08:20:48.803Z,50.71
2018-02-02T08:23:15.011Z,50.65
2018-02-02T08:25:41.258Z,50.65
2018-02-02T08:28:07.493Z,50.65
2018-02-02T08:30:33.664Z,50.59
2018-02-02T08:33:00.161Z,50.62
2018-02-02T08:35:26.342Z,50.61
2018-02-02T08:37:52.819Z,50.57
2018-02-02T08:40:19.061Z,50.48
2018-02-02T08:42:45.259Z,50.45
2018-02-02T08:45:12.019Z,50.34
2018-02-02T08:47:38.519Z,50.35
2018-02-02T08:50:04.905Z,50.24
2018-02-02T08:52:31.523Z,50.16
2018-02-02T08:54:58.368Z,50.11
2018-02-02T08:57:24.559Z,50.09
2018-02-02T08:59:50.729Z,49.92
2018-02-02T09:02:16.979Z,49.93
2018-02-02T09:04:43.552Z,49.97
2018-02-02T09:07:09.730Z,49.99
2018-02-02T09:09:36.300Z,49.98
2018-02-02T09:12:02.779Z,49.94
2018-02-02T09:14:29.038Z,49.97
2018-02-02T09:16:55.501Z,49.99
2018-02-02T09:19:21.717Z,50.00
2018-02-02T09:21:52.806Z,49.88
2018-02-02T09:24:20.163Z,49.92
2018-02-02T09:26:46.464Z,49.94
2018-02-02T09:29:12.672Z,49.99
2018-02-02T09:31:39.041Z,49.93
2018-02-02T09:34:05.591Z,49.93
2018-02-02T09:36:31.770Z,49.95
2018-02-02T09:38:58.045Z,49.90
2018-02-02T09:41:24.581Z,49.87
2018-02-02T09:43:50.829Z,49.82
2018-02-02T09:46:17.007Z,49.79
2018-02-02T09:48:43.768Z,49.81
2018-02-02T09:51:10.398Z,49.80
2018-02-02T09:53:36.636Z,49.75
2018-02-02T09:56:02.844Z,49.75
2018-02-02T09:58:29.406Z,49.71
2018-02-02T10:00:55.616Z,49.62
2018-02-02T10:03:21.858Z,49.36
2018-02-02T10:05:48.092Z,49.30
2018-02-02T10:08:14.383Z,49.41
2018-02-02T10:10:40.621Z,49.49
2018-02-02T10:13:07.079Z,49.54
2018-02-02T10:15:33.515Z,49.57
2018-02-02T10:18:00.367Z,49.56
2018-02-02T10:20:26.552Z,49.55
2018-02-02T10:22:52.800Z,49.52
2018-02-02T10:25:19.411Z,49.43
2018-02-02T10:27:45.884Z,49.37
2018-02-02T10:30:12.108Z,49.39
2018-02-02T10:32:38.384Z,49.41
2018-02-02T10:35:04.607Z,49.37
2018-02-02T10:37:30.803Z,49.44
2018-02-02T10:39:57.352Z,49.49
2018-02-02T10:42:23.540Z,49.51
2018-02-02T10:44:49.703Z,49.51
2018-02-02T10:47:15.983Z,49.59
2018-02-02T10:49:42.245Z,49.55
2018-02-02T10:52:08.469Z,49.51
2018-02-02T10:54:34.698Z,49.46
2018-02-02T10:57:00.908Z,49.36
2018-02-02T10:59:27.090Z,49.22
2018-02-02T11:01:59.507Z,48.98
2018-02-02T11:04:25.779Z,48.85
2018-02-02T11:06:51.991Z,48.87
2018-02-02T11:09:18.460Z,48.88
2018-02-02T11:11:44.679Z,48.81
2018-02-02T11:14:10.879Z,48.81
2018-02-02T11:16:37.412Z,48.83
2018-02-02T11:19:03.599Z,48.81
2018-02-02T11:21:30.076Z,48.77
2018-02-02T11:23:56.348Z,48.73
2018-02-02T11:26:22.537Z,48.76
2018-02-02T11:28:49.066Z,48.46
2018-02-02T11:31:15.612Z,48.43
2018-02-02T11:33:41.787Z,48.46
2018-02-02T11:36:07.973Z,48.57
2018-02-02T11:38:34.224Z,48.66
2018-02-02T11:41:00.382Z,48.72
2018-02-02T11:43:26.544Z,48.77
2018-02-02T11:45:52.831Z,48.67
2018-02-02T11:48:19.032Z,48.61
2018-02-02T11:50:45.255Z,48.62
2018-02-02T11:53:11.495Z,48.94
2018-02-02T11:55:37.707Z,48.82
2018-02-02T11:58:03.905Z,48.76
2018-02-02T12:00:30.543Z,48.80
2018-02-02T12:02:56.796Z,48.81
2018-02-02T12:05:23.060Z,48.78
2018-02-02T12:07:49.601Z,48.77
2018-02-02T12:10:15.838Z,48.71
2018-02-02T12:12:42.036Z,48.71
2018-02-02T12:15:08.328Z,48.70
2018-02-02T12:17:34.585Z,48.67
2018-02-02T12:20:00.856Z,48.62
2018-02-02T12:25:39.944Z,48.54
2018-02-02T12:31:07.589Z,48.63
2018-02-02T12:33:39.876Z,48.59
2018-02-02T12:39:02.734Z,48.57
2018-02-02T12:41:29.020Z,48.51
2018-02-02T12:43:55.517Z,48.44
2018-02-02T12:46:21.702Z,48.34
2018-02-02T12:48:57.387Z,48.33
2018-02-02T12:51:23.568Z,48.27
2018-02-02T12:53:49.786Z,48.22
2018-02-02T12:56:16.040Z,48.23
2018-02-02T12:58:42.236Z,48.61
2018-02-02T13:01:08.446Z,48.63
2018-02-02T13:03:34.783Z,48.67
2018-02-02T13:06:01.305Z,48.78
2018-02-02T13:08:27.525Z,48.80
2018-02-02T13:10:54.059Z,48.87
2018-02-02T13:13:20.299Z,49.35
2018-02-02T13:15:46.475Z,50.01
2018-02-02T13:18:12.731Z,50.23
2018-02-02T13:20:39.279Z,50.01
2018-02-02T13:23:05.465Z,49.92
2018-02-02T13:25:31.956Z,49.61
2018-02-02T13:27:58.194Z,49.69
2018-02-02T13:30:24.409Z,49.73
2018-02-02T13:32:50.600Z,50.26
2018-02-02T13:35:17.107Z,50.21
2018-02-02T13:37:43.276Z,50.44
2018-02-02T13:40:09.711Z,50.64
2018-02-02T13:42:36.311Z,50.42
2018-02-02T13:45:02.497Z,50.31
2018-02-02T13:47:28.681Z,50.31
2018-02-02T13:49:55.239Z,50.31
2018-02-02T13:52:21.408Z,50.33
2018-02-02T13:54:47.599Z,50.28
2018-02-02T13:57:13.841Z,50.27
2018-02-02T13:59:40.356Z,50.25
2018-02-02T14:02:06.793Z,50.21
2018-02-02T14:04:33.327Z,50.15
2018-02-02T14:06:59.527Z,50.13
2018-02-02T14:09:26.031Z,50.11
2018-02-02T14:11:52.235Z,50.08
2018-02-02T14:14:18.463Z,50.06
2018-02-02T14:16:44.730Z,50.07
2018-02-02T14:19:10.934Z,50.14
2018-02-02T14:21:37.106Z,50.19
2018-02-02T14:24:03.667Z,50.20
2018-02-02T14:26:30.203Z,50.19
2018-02-02T14:28:56.630Z,50.08
2018-02-02T14:31:22.880Z,50.05
2018-02-02T14:33:49.104Z,50.06
2018-02-02T14:36:15.296Z,50.07
2018-02-02T14:38:41.507Z,50.06
2018-02-02T14:41:07.763Z,50.04
2018-02-02T14:43:33.968Z,50.02
2018-02-02T14:46:00.437Z,50.02
2018-02-02T14:48:26.655Z,50.02
2018-02-02T14:50:53.200Z,50.08
2018-02-02T14:53:19.805Z,50.16
2018-02-02T14:55:46.375Z,50.12
2018-02-02T14:58:12.587Z,50.11
2018-02-02T15:00:38.863Z,50.06
2018-02-02T15:03:05.068Z,50.09
2018-02-02T15:05:31.336Z,50.13
2018-02-02T15:07:57.555Z,50.17
2018-02-02T15:10:23.759Z,50.21
2018-02-02T15:12:49.977Z,50.25
2018-02-02T15:15:16.245Z,50.27
2018-02-02T15:17:42.442Z,50.30
2018-02-02T15:20:08.621Z,50.36
2018-02-02T15:22:37.712Z,50.35
2018-02-02T15:25:03.908Z,50.34
2018-02-02T15:27:30.102Z,50.35
2018-02-02T15:29:56.372Z,50.40
2018-02-02T15:32:22.566Z,50.37
2018-02-02T15:34:49.092Z,50.34
2018-02-02T15:37:15.630Z,50.37
2018-02-02T15:39:41.846Z,50.39
2018-02-02T15:42:08.076Z,50.34
2018-02-02T15:44:34.308Z,50.37
2018-02-02T15:47:00.524Z,50.35
2018-02-02T15:49:26.712Z,50.35
2018-02-02T15:51:52.939Z,50.42
2018-02-02T15:54:19.125Z,50.42
2018-02-02T15:56:45.665Z,50.46
2018-02-02T15:59:12.302Z,50.48
2018-02-02T16:01:38.508Z,50.50
2018-02-02T16:04:04.703Z,50.51
2018-02-02T16:06:31.292Z,50.53
2018-02-02T16:08:57.480Z,50.54
2018-02-02T16:11:23.720Z,50.58
2018-02-02T16:13:50.278Z,50.54
2018-02-02T16:16:16.484Z,50.55
2018-02-02T16:18:42.675Z,50.54
2018-02-02T16:21:08.902Z,50.56
2018-02-02T16:23:35.107Z,50.57
2018-02-02T16:26:01.309Z,50.58
2018-02-02T16:28:33.423Z,50.61
2018-02-02T16:30:59.647Z,50.61
2018-02-02T16:33:26.148Z,50.57
2018-02-02T16:35:52.375Z,50.57
2018-02-02T16:38:18.555Z,50.55
2018-02-02T16:40:44.823Z,50.58
2018-02-02T16:43:11.011Z,50.63
2018-02-02T16:45:37.216Z,50.62
2018-02-02T16:48:03.427Z,50.61
2018-02-02T16:50:29.644Z,50.62
2018-02-02T16:52:56.232Z,50.62
2018-02-02T16:55:22.484Z,50.59
2018-02-02T16:57:48.724Z,50.56
2018-02-02T17:00:15.002Z,50.56
2018-02-02T17:02:41.219Z,50.58
2018-02-02T17:05:07.836Z,50.60
2018-02-02T17:07:34.671Z,50.61
2018-02-02T17:10:01.058Z,50.62
2018-02-02T17:12:27.284Z,50.61
2018-02-02T17:14:53.511Z,50.64
2018-02-02T17:17:19.701Z,50.63
2018-02-02T17:19:46.427Z,50.68
2018-02-02T17:22:12.619Z,50.66
2018-02-02T17:24:39.090Z,50.63
2018-02-02T17:27:05.692Z,50.68
2018-02-02T17:29:31.908Z,50.68
2018-02-02T17:31:58.112Z,50.68
2018-02-02T17:34:24.680Z,50.63
2018-02-02T17:36:51.146Z,50.62
2018-02-02T17:39:17.685Z,50.62
2018-02-02T17:41:43.903Z,50.62
2018-02-02T17:44:10.095Z,50.66
2018-02-02T17:46:36.575Z,50.66
2018-02-02T17:49:02.897Z,50.62
2018-02-02T17:51:29.079Z,50.57
2018-02-02T17:53:55.258Z,50.59
2018-02-02T17:56:21.565Z,50.54
2018-02-02T17:58:47.722Z,50.56
2018-02-02T18:01:19.856Z,50.53
2018-02-02T18:03:46.096Z,50.53
2018-02-02T18:06:12.370Z,50.49
2018-02-02T18:08:38.878Z,50.51
2018-02-02T18:11:05.156Z,50.53
2018-02-02T18:13:31.376Z,50.54
2018-02-02T18:15:57.551Z,50.51
2018-02-02T18:18:23.895Z,50.51
2018-02-02T18:20:50.069Z,50.54
2018-02-02T18:23:16.271Z,50.56
2018-02-02T18:25:42.470Z,50.58
2018-02-02T18:28:08.728Z,50.59
2018-02-02T18:30:35.062Z,50.57
2018-02-02T18:33:01.562Z,50.63
2018-02-02T18:35:27.822Z,50.63
2018-02-02T18:37:54.327Z,50.64
2018-02-02T18:40:20.520Z,50.65
2018-02-02T18:42:46.756Z,50.64
2018-02-02T18:45:12.967Z,50.62
2018-02-02T18:47:39.164Z,50.61
2018-02-02T18:50:05.738Z,50.60
2018-02-02T18:52:31.913Z,50.63
2018-02-02T18:54:58.124Z,50.59
2018-02-02T18:57:24.415Z,50.59
2018-02-02T18:59:50.591Z,50.57
2018-02-02T19:02:16.841Z,50.57
2018-02-02T19:04:43.035Z,50.60
2018-02-02T19:07:09.241Z,50.56
2018-02-02T19:09:35.432Z,50.53
2018-02-02T19:12:02.001Z,50.48
2018-02-02T19:14:28.240Z,50.56
2018-02-02T19:16:54.422Z,50.58
2018-02-02T19:19:20.646Z,50.56
2018-02-02T19:21:46.828Z,50.56
2018-02-02T19:24:13.008Z,50.53
2018-02-02T19:26:39.255Z,50.58
2018-02-02T19:29:05.433Z,50.54
2018-02-02T19:31:31.619Z,50.53
2018-02-02T19:33:57.841Z,50.51
2018-02-02T19:36:24.057Z,50.59
2018-02-02T19:38:50.249Z,50.58
2018-02-02T19:41:18.070Z,50.61
2018-02-02T19:43:44.275Z,50.56
2018-02-02T19:46:10.556Z,50.55
2018-02-02T19:48:36.850Z,50.54
2018-02-02T19:51:03.027Z,50.60
2018-02-02T19:53:29.225Z,50.60
2018-02-02T19:55:55.887Z,50.57
2018-02-02T19:58:22.116Z,50.58
2018-02-02T20:00:48.272Z,50.54
2018-02-02T20:03:14.508Z,50.56
2018-02-02T20:05:40.685Z,50.54
2018-02-02T20:08:06.892Z,50.47
2018-02-02T20:10:33.111Z,50.56
2018-02-02T20:12:59.326Z,50.57
2018-02-02T20:15:25.828Z,50.61
2018-02-02T20:17:52.014Z,50.65
2018-02-02T20:20:18.470Z,50.61
2018-02-02T20:22:44.678Z,50.60
2018-02-02T20:25:10.887Z,50.58
2018-02-02T20:27:37.107Z,50.60
2018-02-02T20:30:03.380Z,50.53
2018-02-02T20:32:29.608Z,50.57
2018-02-02T20:34:55.849Z,50.56
2018-02-02T20:37:22.055Z,50.58
2018-02-02T20:39:48.259Z,50.63
2018-02-02T20:42:14.515Z,50.64
2018-02-02T20:44:40.742Z,50.68
2018-02-02T20:47:06.919Z,50.70
2018-02-02T20:49:33.492Z,50.68
2018-02-02T20:51:59.679Z,50.73
2018-02-02T20:54:25.871Z,50.76
2018-02-02T20:56:52.116Z,50.70
2018-02-02T20:59:18.348Z,50.70
2018-02-02T21:01:44.579Z,50.65
2018-02-02T21:04:10.782Z,50.65
2018-02-02T21:06:36.997Z,50.64
2018-02-02T21:09:03.358Z,50.64
2018-02-02T21:11:29.883Z,50.66
2018-02-02T21:13:56.071Z,50.65
2018-02-02T21:16:22.327Z,50.69
2018-02-02T21:18:48.521Z,50.67
2018-02-02T21:21:14.696Z,50.70
2018-02-02T21:23:40.929Z,50.69
2018-02-02T21:26:07.447Z,50.64
2018-02-02T21:28:33.645Z,50.63
2018-02-02T21:30:59.852Z,50.60
2018-02-02T21:33:26.065Z,50.73
2018-02-02T21:35:52.320Z,50.71
2018-02-02T21:38:18.799Z,50.71
2018-02-02T21:40:45.007Z,50.75
2018-02-02T21:43:11.283Z,50.73
2018-02-02T21:45:37.484Z,50.70
2018-02-02T21:48:03.696Z,50.67
2018-02-02T21:50:29.948Z,50.68
2018-02-02T21:55:28.436Z,50.67
2018-02-02T21:57:54.943Z,50.73
2018-02-02T22:00:21.128Z,50.67
2018-02-02T22:02:47.287Z,50.70
2018-02-02T22:05:13.551Z,50.62
2018-02-02T22:07:39.783Z,50.62
2018-02-02T22:10:05.971Z,50.63
2018-02-02T22:12:32.228Z,50.61
2018-02-02T22:14:58.402Z,50.60
2018-02-02T22:17:24.574Z,50.64
2018-02-02T22:19:50.835Z,50.61
2018-02-02T22:22:17.350Z,50.64
2018-02-02T22:24:43.612Z,50.67
2018-02-02T22:27:09.925Z,50.68
2018-02-02T22:29:36.215Z,50.64
2018-02-02T22:32:02.432Z,50.66
2018-02-02T22:34:28.681Z,50.64
2018-02-02T22:36:54.872Z,50.66
2018-02-02T22:39:21.053Z,50.60
2018-02-02T22:41:47.696Z,50.63
2018-02-02T22:44:13.886Z,50.68
2018-02-02T22:46:40.071Z,50.74
2018-02-02T22:49:06.360Z,50.75
2018-02-02T22:51:32.571Z,50.71
2018-02-02T22:53:58.783Z,50.75
2018-02-02T22:56:24.980Z,50.76
2018-02-02T22:58:51.492Z,50.76
2018-02-02T23:01:17.755Z,50.79
2018-02-02T23:03:43.961Z,50.77
2018-02-02T23:06:10.219Z,50.74
2018-02-02T23:08:36.536Z,50.71
2018-02-02T23:11:03.043Z,50.71
2018-02-02T23:13:29.305Z,50.75
2018-02-02T23:15:55.510Z,50.70
2018-02-02T23:18:21.720Z,50.79
2018-02-02T23:20:47.974Z,50.74
2018-02-02T23:23:14.195Z,50.70
2018-02-02T23:25:40.449Z,50.73
2018-02-02T23:28:06.664Z,50.69
2018-02-02T23:30:32.855Z,50.67
2018-02-02T23:32:59.404Z,50.67
2018-02-02T23:35:25.599Z,50.63
2018-02-02T23:37:51.767Z,50.63
2018-02-02T23:40:18.009Z,50.59
2018-02-02T23:42:44.195Z,50.63
2018-02-02T23:45:10.368Z,50.62
2018-02-02T23:47:36.595Z,50.67
2018-02-02T23:50:02.789Z,50.69
2018-02-02T23:52:29.331Z,50.67
2018-02-02T23:54:55.572Z,50.66
2018-02-02T23:57:21.845Z,50.62
2018-02-02T23:59:48.021Z,50.58
